createdAt,value
2022-11-05T00:00:17.683Z,14.90
2022-11-05T00:03:04.745Z,14.90
2022-11-05T00:05:50.809Z,14.90
2022-11-05T00:08:36.602Z,14.90
2022-11-05T00:11:04.850Z,14.90
2022-11-05T00:14:05.185Z,14.90
2022-11-05T00:16:45.015Z,14.80
2022-11-05T00:19:15.053Z,14.70
2022-11-05T00:22:00.456Z,14.60
2022-11-05T00:24:46.021Z,14.60
2022-11-05T00:27:14.107Z,14.50
2022-11-05T00:29:42.155Z,14.40
2022-11-05T00:32:12.562Z,14.40
2022-11-05T00:34:41.954Z,14.40
2022-11-05T00:37:09.946Z,14.40
2022-11-05T00:39:40.167Z,14.30
2022-11-05T00:42:25.709Z,14.30
2022-11-05T00:45:02.701Z,14.40
2022-11-05T00:47:48.421Z,14.40
2022-11-05T00:50:18.215Z,14.30
2022-11-05T00:52:59.511Z,14.30
2022-11-05T00:55:30.512Z,14.40
2022-11-05T00:57:58.833Z,14.30
2022-11-05T01:00:28.186Z,14.30
2022-11-05T01:02:58.342Z,14.30
2022-11-05T01:05:27.908Z,14.20
2022-11-05T01:07:58.330Z,14.20
2022-11-05T01:10:28.613Z,14.30
2022-11-05T01:12:57.300Z,14.20
2022-11-05T01:15:25.565Z,14.20
2022-11-05T01:17:56.305Z,14.20
2022-11-05T01:20:24.609Z,14.10
2022-11-05T01:22:54.248Z,14.10
2022-11-05T01:25:22.443Z,14.00
2022-11-05T01:27:50.896Z,14.00
2022-11-05T01:30:18.905Z,14.00
2022-11-05T01:32:47.127Z,14.00
2022-11-05T01:35:16.912Z,14.00
2022-11-05T01:37:47.771Z,13.80
2022-11-05T01:40:19.556Z,13.80
2022-11-05T01:42:47.827Z,13.90
2022-11-05T01:45:19.525Z,14.00
2022-11-05T01:47:51.484Z,14.00
2022-11-05T01:50:24.501Z,13.90
2022-11-05T01:53:01.063Z,13.90
2022-11-05T01:55:33.843Z,13.80
2022-11-05T01:58:03.916Z,13.80
2022-11-05T02:00:32.316Z,13.80
2022-11-05T02:03:00.694Z,13.80
2022-11-05T02:05:29.548Z,13.80
2022-11-05T02:07:57.914Z,13.80
2022-11-05T02:10:26.204Z,13.80
2022-11-05T02:12:55.651Z,13.80
2022-11-05T02:15:31.488Z,13.80
2022-11-05T02:18:11.840Z,13.70
2022-11-05T02:20:51.967Z,13.70
2022-11-05T02:23:58.483Z,13.70
2022-11-05T02:26:51.135Z,13.70
2022-11-05T02:29:49.237Z,13.60
2022-11-05T02:32:31.297Z,13.60
2022-11-05T02:35:14.779Z,13.70
2022-11-05T02:37:47.279Z,13.50
2022-11-05T02:40:20.789Z,13.50
2022-11-05T02:42:59.729Z,13.50
2022-11-05T02:45:39.195Z,13.60
2022-11-05T02:48:15.353Z,13.60
2022-11-05T02:50:50.270Z,13.70
2022-11-05T02:53:24.829Z,13.70
2022-11-05T02:55:55.722Z,13.60
2022-11-05T02:58:24.038Z,13.50
2022-11-05T03:00:54.265Z,13.50
2022-11-05T03:03:35.224Z,13.40
2022-11-05T03:06:31.242Z,13.30
2022-11-05T03:09:26.930Z,13.30
2022-11-05T03:12:06.228Z,13.30
2022-11-05T03:14:44.730Z,13.30
2022-11-05T03:17:26.533Z,13.30
2022-11-05T03:20:07.558Z,13.20
2022-11-05T03:22:42.055Z,13.20
2022-11-05T03:25:14.650Z,13.20
2022-11-05T03:27:48.891Z,13.30
2022-11-05T03:30:20.010Z,13.30
2022-11-05T03:32:51.035Z,13.30
2022-11-05T03:35:26.723Z,13.30
2022-11-05T03:37:59.681Z,13.20
2022-11-05T03:40:29.319Z,13.20
2022-11-05T03:43:01.381Z,13.20
2022-11-05T03:45:33.835Z,13.10
2022-11-05T03:48:05.153Z,13.10
2022-11-05T03:50:41.628Z,13.10
2022-11-05T03:53:16.621Z,13.10
2022-11-05T03:55:51.928Z,13.10
2022-11-05T03:58:22.559Z,13.10
2022-11-05T04:00:52.059Z,13.10
2022-11-05T04:03:20.631Z,13.10
2022-11-05T04:06:13.842Z,13.00
2022-11-05T04:08:59.534Z,13.00
2022-11-05T04:11:47.254Z,13.00
2022-11-05T04:14:15.275Z,13.00
2022-11-05T04:17:00.844Z,13.00
2022-11-05T04:19:42.756Z,13.00
2022-11-05T04:22:29.395Z,13.00
2022-11-05T04:24:57.408Z,13.00
2022-11-05T04:27:25.447Z,13.10
2022-11-05T04:30:10.980Z,13.10
2022-11-05T04:32:38.991Z,13.10
2022-11-05T04:35:07.110Z,13.10
2022-11-05T04:37:36.469Z,13.00
2022-11-05T04:40:04.735Z,13.00
2022-11-05T04:42:32.715Z,12.90
2022-11-05T04:45:00.741Z,12.90
2022-11-05T04:47:30.899Z,13.00
2022-11-05T04:49:58.949Z,12.90
2022-11-05T04:52:27.048Z,13.00
2022-11-05T04:54:56.467Z,13.00
2022-11-05T04:57:24.435Z,13.00
2022-11-05T04:59:53.901Z,13.00
2022-11-05T05:02:24.059Z,13.10
2022-11-05T05:04:52.048Z,13.10
2022-11-05T05:07:20.428Z,13.10
2022-11-05T05:09:50.539Z,13.10
2022-11-05T05:12:19.968Z,13.00
2022-11-05T05:14:48.598Z,13.00
2022-11-05T05:17:16.879Z,13.00
2022-11-05T05:20:02.474Z,13.10
2022-11-05T05:22:30.559Z,13.10
2022-11-05T05:25:00.002Z,13.10
2022-11-05T05:27:31.632Z,13.10
2022-11-05T05:30:00.175Z,13.10
2022-11-05T05:32:28.211Z,13.10
2022-11-05T05:34:56.207Z,13.10
2022-11-05T05:37:24.220Z,13.10
2022-11-05T05:39:53.663Z,13.10
2022-11-05T05:42:22.981Z,13.10
2022-11-05T05:44:52.469Z,13.20
2022-11-05T05:47:22.851Z,13.10
2022-11-05T05:49:50.916Z,13.10
2022-11-05T05:52:18.988Z,13.00
2022-11-05T05:54:49.150Z,13.10
2022-11-05T05:57:19.318Z,13.00
2022-11-05T05:59:47.389Z,13.00
2022-11-05T06:02:16.895Z,13.10
2022-11-05T06:04:45.025Z,13.00
2022-11-05T06:07:13.038Z,13.00
2022-11-05T06:09:41.081Z,13.00
2022-11-05T06:12:09.112Z,13.00
2022-11-05T06:14:37.223Z,12.90
2022-11-05T06:17:05.225Z,12.90
2022-11-05T06:19:34.673Z,12.90
2022-11-05T06:22:05.226Z,12.80
2022-11-05T06:24:33.219Z,12.80
2022-11-05T06:27:01.345Z,12.90
2022-11-05T06:29:29.285Z,12.90
2022-11-05T06:31:57.382Z,12.90
2022-11-05T06:34:25.379Z,12.90
2022-11-05T06:36:57.021Z,12.90
2022-11-05T06:39:25.010Z,12.90
2022-11-05T06:44:41.132Z,13.00
2022-11-05T06:47:09.151Z,13.00
2022-11-05T06:49:37.175Z,13.00
2022-11-05T06:52:06.599Z,13.00
2022-11-05T06:54:34.697Z,13.00
2022-11-05T06:57:04.442Z,13.10
2022-11-05T06:59:34.895Z,13.20
2022-11-05T07:02:02.975Z,13.40
2022-11-05T07:04:31.100Z,13.50
2022-11-05T07:06:59.897Z,13.60
2022-11-05T07:09:29.972Z,13.70
2022-11-05T07:11:58.234Z,13.90
2022-11-05T07:14:26.527Z,14.00
2022-11-05T07:16:54.745Z,14.10
2022-11-05T07:19:22.951Z,14.20
2022-11-05T07:21:51.785Z,14.50
2022-11-05T07:24:20.092Z,14.70
2022-11-05T07:26:49.675Z,14.90
2022-11-05T07:29:17.895Z,14.80
2022-11-05T07:31:46.963Z,14.80
2022-11-05T07:34:15.562Z,15.10
2022-11-05T07:36:43.736Z,15.20
2022-11-05T07:39:12.016Z,15.30
2022-11-05T07:41:42.604Z,15.40
2022-11-05T07:44:14.403Z,15.50
2022-11-05T07:46:42.802Z,15.60
2022-11-05T07:49:11.047Z,15.70
2022-11-05T07:51:39.290Z,15.80
2022-11-05T07:54:07.526Z,16.00
2022-11-05T07:56:35.828Z,16.10
2022-11-05T07:59:04.354Z,16.30
2022-11-05T08:01:34.237Z,16.50
2022-11-05T08:04:02.645Z,16.60
2022-11-05T08:06:33.336Z,16.70
2022-11-05T08:09:01.551Z,16.80
2022-11-05T08:11:29.847Z,17.00
2022-11-05T08:13:58.104Z,17.20
2022-11-05T08:16:26.399Z,17.30
2022-11-05T08:18:58.058Z,17.50
2022-11-05T08:21:26.263Z,17.60
2022-11-05T08:23:54.487Z,17.60
2022-11-05T08:26:22.704Z,17.60
2022-11-05T08:28:50.933Z,17.80
2022-11-05T08:31:19.135Z,18.00
2022-11-05T08:33:47.390Z,18.00
2022-11-05T08:36:26.021Z,18.10
2022-11-05T08:38:54.253Z,18.20
2022-11-05T08:41:24.633Z,18.30
2022-11-05T08:43:56.290Z,18.40
2022-11-05T08:46:24.564Z,18.60
2022-11-05T08:48:53.183Z,18.80
2022-11-05T08:51:22.829Z,18.80
2022-11-05T08:53:51.027Z,19.00
2022-11-05T08:56:19.597Z,18.90
2022-11-05T08:58:47.845Z,19.00
2022-11-05T09:01:16.127Z,19.10
2022-11-05T09:03:44.495Z,19.20
2022-11-05T09:06:14.764Z,19.10
2022-11-05T09:08:44.383Z,19.50
2022-11-05T09:11:12.740Z,19.60
2022-11-05T09:13:40.982Z,19.70
2022-11-05T09:16:19.120Z,19.80
2022-11-05T09:18:47.380Z,19.70
2022-11-05T09:21:15.584Z,19.80
2022-11-05T09:23:47.666Z,19.90
2022-11-05T09:26:16.207Z,19.90
2022-11-05T09:28:44.503Z,19.90
2022-11-05T09:31:15.708Z,20.10
2022-11-05T09:33:43.917Z,20.30
2022-11-05T09:36:12.078Z,20.30
2022-11-05T09:38:40.429Z,20.40
2022-11-05T09:41:27.905Z,20.50
2022-11-05T09:43:59.889Z,20.60
2022-11-05T09:46:31.047Z,20.70
2022-11-05T09:49:04.246Z,20.60
2022-11-05T09:51:33.372Z,20.60
2022-11-05T09:54:05.594Z,20.60
2022-11-05T09:56:38.332Z,20.80
2022-11-05T09:59:19.138Z,21.00
2022-11-05T10:01:49.021Z,21.20
2022-11-05T10:04:20.387Z,21.30
2022-11-05T10:06:52.751Z,21.40
2022-11-05T10:09:25.634Z,21.30
2022-11-05T10:11:59.108Z,21.40
2022-11-05T10:14:30.328Z,21.60
2022-11-05T10:17:05.282Z,21.80
2022-11-05T10:19:42.728Z,21.90
2022-11-05T10:22:13.244Z,22.10
2022-11-05T10:24:46.437Z,22.10
2022-11-05T10:27:20.317Z,22.00
2022-11-05T10:29:50.012Z,22.00
2022-11-05T10:32:26.866Z,22.00
2022-11-05T10:34:57.459Z,22.00
2022-11-05T10:37:29.087Z,22.00
2022-11-05T10:39:57.420Z,22.00
2022-11-05T10:42:47.115Z,22.00
2022-11-05T10:45:30.120Z,22.10
2022-11-05T10:48:19.199Z,21.90
2022-11-05T10:50:47.726Z,21.60
2022-11-05T10:53:21.421Z,21.60
2022-11-05T10:55:51.151Z,21.60
2022-11-05T10:58:28.926Z,21.60
2022-11-05T11:01:09.174Z,21.60
2022-11-05T11:03:43.153Z,21.70
2022-11-05T11:06:24.737Z,21.60
2022-11-05T11:08:54.764Z,21.70
2022-11-05T11:11:32.315Z,21.80
2022-11-05T11:14:06.269Z,21.60
2022-11-05T11:16:39.899Z,21.40
2022-11-05T11:19:25.697Z,21.40
2022-11-05T11:22:22.147Z,21.50
2022-11-05T11:24:54.089Z,21.70
2022-11-05T11:27:28.460Z,21.80
2022-11-05T11:30:00.064Z,21.80
2022-11-05T11:32:36.023Z,21.50
2022-11-05T11:35:05.107Z,21.60
2022-11-05T11:37:37.351Z,21.80
2022-11-05T11:40:15.271Z,21.90
2022-11-05T11:42:47.526Z,21.70
2022-11-05T11:45:26.669Z,21.70
2022-11-05T11:47:57.706Z,21.70
2022-11-05T11:50:38.605Z,21.80
2022-11-05T11:53:29.566Z,21.80
2022-11-05T11:56:03.887Z,21.70
2022-11-05T11:58:44.895Z,21.70
2022-11-05T12:01:38.723Z,21.60
2022-11-05T12:04:22.625Z,21.40
2022-11-05T12:07:01.946Z,21.20
2022-11-05T12:09:41.657Z,21.10
2022-11-05T12:12:14.361Z,21.10
2022-11-05T12:14:54.426Z,21.10
2022-11-05T12:17:43.604Z,21.30
2022-11-05T12:20:27.246Z,21.50
2022-11-05T12:23:10.473Z,21.50
2022-11-05T12:25:45.052Z,21.60
2022-11-05T12:28:36.139Z,21.70
2022-11-05T12:31:14.384Z,21.70
2022-11-05T12:33:56.292Z,21.80
2022-11-05T12:36:31.959Z,21.80
2022-11-05T12:39:30.368Z,21.70
2022-11-05T12:42:03.884Z,21.50
2022-11-05T12:44:54.114Z,21.20
2022-11-05T12:47:46.667Z,21.20
2022-11-05T12:50:28.893Z,21.40
2022-11-05T12:53:28.980Z,21.50
2022-11-05T12:56:00.572Z,21.50
2022-11-05T12:58:35.877Z,21.40
2022-11-05T13:01:07.529Z,21.30
2022-11-05T13:03:40.969Z,21.30
2022-11-05T13:06:15.298Z,21.10
2022-11-05T13:08:49.736Z,21.20
2022-11-05T13:11:24.394Z,21.40
2022-11-05T13:14:01.526Z,21.40
2022-11-05T13:16:33.880Z,21.20
2022-11-05T13:19:10.239Z,21.00
2022-11-05T13:21:40.482Z,20.90
2022-11-05T13:24:17.729Z,20.80
2022-11-05T13:26:52.085Z,20.80
2022-11-05T13:29:26.545Z,20.80
2022-11-05T13:31:59.717Z,20.80
2022-11-05T13:34:29.480Z,20.80
2022-11-05T13:37:21.261Z,21.00
2022-11-05T13:39:54.137Z,21.10
2022-11-05T13:43:00.364Z,20.90
2022-11-05T13:46:04.461Z,20.60
2022-11-05T13:49:02.598Z,20.50
2022-11-05T13:51:54.236Z,20.50
2022-11-05T13:54:48.666Z,20.30
2022-11-05T13:57:55.130Z,20.30
2022-11-05T14:00:25.415Z,20.30
2022-11-05T14:02:57.139Z,20.30
2022-11-05T14:05:30.622Z,20.30
2022-11-05T14:07:59.546Z,20.20
2022-11-05T14:10:32.272Z,20.00
2022-11-05T14:13:03.097Z,19.90
2022-11-05T14:15:33.053Z,19.80
2022-11-05T14:18:02.320Z,19.80
2022-11-05T14:20:58.264Z,19.90
2022-11-05T14:23:37.483Z,19.60
2022-11-05T14:26:18.477Z,19.60
2022-11-05T14:28:47.959Z,19.60
2022-11-05T14:31:41.037Z,19.60
2022-11-05T14:34:19.869Z,19.60
2022-11-05T14:37:03.407Z,19.50
2022-11-05T14:39:33.758Z,19.30
2022-11-05T14:42:04.455Z,19.30
2022-11-05T14:44:34.065Z,19.20
2022-11-05T14:47:03.585Z,19.10
2022-11-05T14:49:33.334Z,19.00
2022-11-05T14:52:06.351Z,18.90
2022-11-05T14:54:37.228Z,18.80
2022-11-05T14:57:06.781Z,18.80
2022-11-05T14:59:54.522Z,18.70
2022-11-05T15:02:26.334Z,18.70
2022-11-05T15:05:38.511Z,18.60
2022-11-05T15:08:37.865Z,18.50
2022-11-05T15:11:14.639Z,18.50
2022-11-05T15:13:58.005Z,18.40
2022-11-05T15:16:30.934Z,18.40
2022-11-05T15:18:59.512Z,18.30
2022-11-05T15:21:32.850Z,18.30
2022-11-05T15:24:04.989Z,18.40
2022-11-05T15:26:42.403Z,18.40
2022-11-05T15:29:21.652Z,18.30
2022-11-05T15:31:51.451Z,18.20
2022-11-05T15:34:24.161Z,18.20
2022-11-05T15:36:54.073Z,18.10
2022-11-05T15:39:30.467Z,18.00
2022-11-05T15:42:04.597Z,17.90
2022-11-05T15:44:40.341Z,17.90
2022-11-05T15:47:09.983Z,17.80
2022-11-05T15:49:38.057Z,17.60
2022-11-05T15:52:06.130Z,17.50
2022-11-05T15:54:34.540Z,17.40
2022-11-05T15:57:02.993Z,17.40
2022-11-05T15:59:31.485Z,17.30
2022-11-05T16:02:03.788Z,17.20
2022-11-05T16:04:33.168Z,17.20
2022-11-05T16:07:02.375Z,17.00
2022-11-05T16:09:31.652Z,16.90
2022-11-05T16:12:26.156Z,16.80
2022-11-05T16:14:59.430Z,16.60
2022-11-05T16:17:32.690Z,16.50
2022-11-05T16:20:03.364Z,16.50
2022-11-05T16:22:46.379Z,16.40
2022-11-05T16:25:27.776Z,16.40
2022-11-05T16:27:56.354Z,16.30
2022-11-05T16:30:25.536Z,16.20
2022-11-05T16:33:05.037Z,16.10
2022-11-05T16:35:33.385Z,16.10
2022-11-05T16:38:03.988Z,16.10
2022-11-05T16:40:32.216Z,16.10
2022-11-05T16:43:16.363Z,16.00
2022-11-05T16:45:44.587Z,15.90
2022-11-05T16:48:15.524Z,15.90
2022-11-05T16:50:43.913Z,15.90
2022-11-05T16:53:12.225Z,15.80
2022-11-05T16:55:41.260Z,15.80
2022-11-05T16:58:19.653Z,15.80
2022-11-05T17:00:48.659Z,15.80
2022-11-05T17:03:18.279Z,15.70
2022-11-05T17:05:46.532Z,15.60
2022-11-05T17:08:15.096Z,15.60
2022-11-05T17:10:43.658Z,15.60
2022-11-05T17:13:15.465Z,15.50
2022-11-05T17:15:48.436Z,15.50
2022-11-05T17:18:19.299Z,15.40
2022-11-05T17:20:49.803Z,15.40
2022-11-05T17:23:21.989Z,15.40
2022-11-05T17:25:53.706Z,15.30
2022-11-05T17:28:22.158Z,15.30
2022-11-05T17:30:52.931Z,15.30
2022-11-05T17:33:23.982Z,15.30
2022-11-05T17:35:54.412Z,15.30
2022-11-05T17:38:26.140Z,15.30
2022-11-05T17:40:54.615Z,15.20
2022-11-05T17:43:23.146Z,15.20
2022-11-05T17:45:52.975Z,15.10
2022-11-05T17:48:22.736Z,15.10
2022-11-05T17:50:52.190Z,15.10
2022-11-05T17:53:21.086Z,15.10
2022-11-05T17:55:51.641Z,15.00
2022-11-05T17:58:20.129Z,15.00
2022-11-05T18:00:49.169Z,15.00
2022-11-05T18:03:17.405Z,15.00
2022-11-05T18:05:49.262Z,14.90
2022-11-05T18:08:17.787Z,14.90
2022-11-05T18:10:49.343Z,14.90
2022-11-05T18:13:19.845Z,14.90
2022-11-05T18:15:48.156Z,14.90
2022-11-05T18:18:16.376Z,14.80
2022-11-05T18:20:48.123Z,14.80
2022-11-05T18:23:16.344Z,14.90
2022-11-05T18:25:44.669Z,15.00
2022-11-05T18:28:13.183Z,15.00
2022-11-05T18:30:41.756Z,14.90
2022-11-05T18:33:10.445Z,14.80
2022-11-05T18:35:42.605Z,14.70
2022-11-05T18:38:12.947Z,14.60
2022-11-05T18:40:41.147Z,14.60
2022-11-05T18:43:09.623Z,14.60
2022-11-05T18:45:40.216Z,14.50
2022-11-05T18:48:12.314Z,14.50
2022-11-05T18:50:41.145Z,14.40
2022-11-05T18:53:09.339Z,14.40
2022-11-05T18:55:41.825Z,14.30
2022-11-05T18:58:10.581Z,14.30
2022-11-05T19:00:40.411Z,14.40
2022-11-05T19:03:09.586Z,14.40
2022-11-05T19:05:40.070Z,14.40
2022-11-05T19:08:08.312Z,14.50
2022-11-05T19:10:36.496Z,14.50
2022-11-05T19:13:06.063Z,14.50
2022-11-05T19:15:34.344Z,14.40
2022-11-05T19:18:02.528Z,14.40
2022-11-05T19:20:36.633Z,14.50
2022-11-05T19:23:06.436Z,14.50
2022-11-05T19:25:34.732Z,14.50
2022-11-05T19:28:06.772Z,14.50
2022-11-05T19:30:34.774Z,14.60
2022-11-05T19:33:02.818Z,14.60
2022-11-05T19:35:30.902Z,14.60
2022-11-05T19:37:58.958Z,14.50
2022-11-05T19:40:29.191Z,14.50
2022-11-05T19:42:57.201Z,14.50
2022-11-05T19:48:19.044Z,14.50
2022-11-05T19:50:48.264Z,14.40
2022-11-05T19:53:16.472Z,14.30
2022-11-05T19:55:45.107Z,14.20
2022-11-05T19:58:13.996Z,14.20
2022-11-05T20:00:44.033Z,14.20
2022-11-05T20:03:12.789Z,14.20
2022-11-05T20:05:41.102Z,14.10
2022-11-05T20:08:11.697Z,14.20
2022-11-05T20:10:42.496Z,14.20
2022-11-05T20:13:15.564Z,14.10
2022-11-05T20:15:48.673Z,14.00
2022-11-05T20:18:17.390Z,14.20
2022-11-05T20:20:46.268Z,14.30
2022-11-05T20:23:14.913Z,14.20
2022-11-05T20:25:43.532Z,14.20
2022-11-05T20:28:12.041Z,14.30
2022-11-05T20:30:40.601Z,14.30
2022-11-05T20:33:10.306Z,14.30
2022-11-05T20:35:40.459Z,14.30
2022-11-05T20:38:09.665Z,14.30
2022-11-05T20:40:41.958Z,14.20
2022-11-05T20:43:10.112Z,14.20
2022-11-05T20:45:39.217Z,14.30
2022-11-05T20:48:09.244Z,14.20
2022-11-05T20:50:41.634Z,14.30
2022-11-05T20:53:09.957Z,14.20
2022-11-05T20:55:42.488Z,14.20
2022-11-05T20:58:11.064Z,14.20
2022-11-05T21:00:42.549Z,14.20
2022-11-05T21:03:12.154Z,14.10
2022-11-05T21:05:40.423Z,14.00
2022-11-05T21:08:08.629Z,14.10
2022-11-05T21:10:36.865Z,14.20
2022-11-05T21:13:05.134Z,14.10
2022-11-05T21:15:33.410Z,14.00
2022-11-05T21:18:02.071Z,14.10
2022-11-05T21:20:31.905Z,14.10
2022-11-05T21:23:00.150Z,14.00
2022-11-05T21:25:28.379Z,14.00
2022-11-05T21:27:56.629Z,14.00
2022-11-05T21:30:24.924Z,14.00
2022-11-05T21:32:53.957Z,14.10
2022-11-05T21:35:22.190Z,14.00
2022-11-05T21:37:51.885Z,14.00
2022-11-05T21:40:20.277Z,13.90
2022-11-05T21:42:48.557Z,14.00
2022-11-05T21:45:17.227Z,14.10
2022-11-05T21:47:45.568Z,14.10
2022-11-05T21:50:17.073Z,14.10
2022-11-05T21:53:05.024Z,14.20
2022-11-05T21:55:51.861Z,14.10
2022-11-05T21:58:37.919Z,14.10
2022-11-05T22:01:08.428Z,14.10
2022-11-05T22:03:39.780Z,14.10
2022-11-05T22:06:08.119Z,14.10
2022-11-05T22:08:36.330Z,14.10
2022-11-05T22:11:06.314Z,14.10
2022-11-05T22:13:34.554Z,14.10
2022-11-05T22:16:02.796Z,14.10
2022-11-05T22:18:31.075Z,14.10
2022-11-05T22:21:01.327Z,14.00
2022-11-05T22:23:29.535Z,14.00
2022-11-05T22:26:00.691Z,14.00
2022-11-05T22:28:30.287Z,14.00
2022-11-05T22:30:58.500Z,14.00
2022-11-05T22:33:28.834Z,13.90
2022-11-05T22:35:59.557Z,13.80
2022-11-05T22:38:27.793Z,13.80
2022-11-05T22:40:56.003Z,13.80
2022-11-05T22:43:24.273Z,13.90
2022-11-05T22:45:56.347Z,13.80
2022-11-05T22:48:24.550Z,13.80
2022-11-05T22:50:52.804Z,13.80
2022-11-05T22:53:21.062Z,13.80
2022-11-05T22:55:49.346Z,13.70
2022-11-05T22:58:22.282Z,13.70
2022-11-05T23:00:50.619Z,13.70
2022-11-05T23:03:20.284Z,13.70
2022-11-05T23:05:56.946Z,13.60
2022-11-05T23:08:42.473Z,13.60
2022-11-05T23:11:33.846Z,13.60
2022-11-05T23:14:02.578Z,13.60
2022-11-05T23:16:48.245Z,13.60
2022-11-05T23:19:35.879Z,13.50
2022-11-05T23:22:22.380Z,13.50
2022-11-05T23:24:50.631Z,13.60
2022-11-05T23:27:18.876Z,13.50
2022-11-05T23:29:47.160Z,13.50
2022-11-05T23:32:25.114Z,13.50
2022-11-05T23:34:55.830Z,13.50
2022-11-05T23:37:45.982Z,13.50
2022-11-05T23:40:17.117Z,13.50
2022-11-05T23:43:03.392Z,13.50
2022-11-05T23:45:52.109Z,13.40
2022-11-05T23:48:27.805Z,13.40
2022-11-05T23:51:12.577Z,13.50
2022-11-05T23:53:42.429Z,13.50
2022-11-05T23:56:12.523Z,13.50
2022-11-05T23:58:42.577Z,13.50
